Aviation Digital Data Service (ADDS)

Output produced by METARs form (1905 UTC 18 April 2019)
found at http://www.aviationweather.gov/metar/data/
 
Forecast for: AGGM (MUNDA/NEW GEORGI, SB)
Text: TAF AGGM 181710Z 1818/1918 16010KT 9999 -SHRA SCT016 BKN100 INTER 1818/1906 5000 TSSH BKN015 FEW016CB Q 1009 1011 1011 1009
Forecast period: 1800 UTC 18 April 2019 to 1800 UTC 19 April 2019
Forecast type: FROM: standard forecast or significant change
Winds: from the SSE (160 degrees) at 12 MPH (10 knots; 5.1 m/s)
Visibility: 6 or more miles 10+ km)
Ceiling: 10000 feet AGL
Clouds: scattered clouds at 1600 feet AGL
broken clouds at 10000 feet AGL
Weather: -SHRA  (light rain showers)
Text:
Forecast period: 1800 UTC 18 April 2019 to 0600 UTC 19 April 2019
Forecast type: TEMPORARY: The following changes expected for less than half the time period
Visibility: 3 miles (5 km)
Ceiling: 1500 feet AGL
Clouds: broken clouds at 1500 feet AGL
few clouds at 1600 feet AGL
Weather: SH TS  (showers, thunderstorm)